sensor_id;sensor_type;location;lat;lon;timestamp;P1;durP1;ratioP1;P2;durP2;ratioP2
69026;SDS011;56080;47.594;19.116;2024-03-02T00:01:59;24.00;;;15.60;;
69026;SDS011;56080;47.594;19.116;2024-03-02T00:12:01;25.30;;;16.20;;
69026;SDS011;56080;47.594;19.116;2024-03-02T00:22:01;26.70;;;16.90;;
69026;SDS011;56080;47.594;19.116;2024-03-02T00:32:03;26.60;;;16.90;;
69026;SDS011;56080;47.594;19.116;2024-03-02T00:42:03;26.00;;;16.00;;
69026;SDS011;56080;47.594;19.116;2024-03-02T00:52:04;25.90;;;15.80;;
69026;SDS011;56080;47.594;19.116;2024-03-02T01:02:04;24.60;;;15.40;;
69026;SDS011;56080;47.594;19.116;2024-03-02T01:12:05;25.80;;;16.30;;
69026;SDS011;56080;47.594;19.116;2024-03-02T01:22:06;23.70;;;15.10;;
69026;SDS011;56080;47.594;19.116;2024-03-02T01:32:07;22.60;;;13.90;;
69026;SDS011;56080;47.594;19.116;2024-03-02T01:42:07;27.40;;;16.20;;
69026;SDS011;56080;47.594;19.116;2024-03-02T01:52:08;27.10;;;17.40;;
69026;SDS011;56080;47.594;19.116;2024-03-02T02:02:09;26.30;;;16.50;;
69026;SDS011;56080;47.594;19.116;2024-03-02T02:12:10;23.10;;;14.90;;
69026;SDS011;56080;47.594;19.116;2024-03-02T02:22:11;23.00;;;15.60;;
69026;SDS011;56080;47.594;19.116;2024-03-02T02:32:11;24.10;;;14.70;;
69026;SDS011;56080;47.594;19.116;2024-03-02T02:42:13;23.00;;;14.90;;
69026;SDS011;56080;47.594;19.116;2024-03-02T02:52:13;23.70;;;14.30;;
69026;SDS011;56080;47.594;19.116;2024-03-02T03:02:14;24.80;;;14.30;;
69026;SDS011;56080;47.594;19.116;2024-03-02T03:12:14;23.40;;;15.50;;
69026;SDS011;56080;47.594;19.116;2024-03-02T03:22:15;26.40;;;16.10;;
69026;SDS011;56080;47.594;19.116;2024-03-02T03:32:17;24.50;;;16.50;;
69026;SDS011;56080;47.594;19.116;2024-03-02T03:52:17;24.00;;;15.50;;
69026;SDS011;56080;47.594;19.116;2024-03-02T04:02:18;26.40;;;16.50;;
69026;SDS011;56080;47.594;19.116;2024-03-02T04:12:18;25.00;;;15.70;;
69026;SDS011;56080;47.594;19.116;2024-03-02T04:32:20;26.90;;;16.10;;
69026;SDS011;56080;47.594;19.116;2024-03-02T04:42:20;25.80;;;15.40;;
69026;SDS011;56080;47.594;19.116;2024-03-02T04:52:21;27.30;;;16.40;;
69026;SDS011;56080;47.594;19.116;2024-03-02T05:02:24;24.50;;;14.80;;
69026;SDS011;56080;47.594;19.116;2024-03-02T05:22:23;23.50;;;14.00;;
69026;SDS011;56080;47.594;19.116;2024-03-02T05:32:24;20.70;;;12.90;;
69026;SDS011;56080;47.594;19.116;2024-03-02T05:42:24;21.10;;;12.50;;
69026;SDS011;56080;47.594;19.116;2024-03-02T05:52:25;18.20;;;11.40;;
69026;SDS011;56080;47.594;19.116;2024-03-02T06:02:26;24.00;;;13.50;;
69026;SDS011;56080;47.594;19.116;2024-03-02T06:12:30;25.50;;;14.90;;
69026;SDS011;56080;47.594;19.116;2024-03-02T06:22:29;27.30;;;14.80;;
69026;SDS011;56080;47.594;19.116;2024-03-02T06:32:28;24.10;;;14.80;;
69026;SDS011;56080;47.594;19.116;2024-03-02T06:42:29;22.40;;;14.20;;
69026;SDS011;56080;47.594;19.116;2024-03-02T06:52:32;23.90;;;15.20;;
69026;SDS011;56080;47.594;19.116;2024-03-02T07:02:30;26.80;;;15.70;;
69026;SDS011;56080;47.594;19.116;2024-03-02T07:12:31;26.20;;;16.10;;
69026;SDS011;56080;47.594;19.116;2024-03-02T07:22:32;22.80;;;14.00;;
69026;SDS011;56080;47.594;19.116;2024-03-02T07:32:32;25.60;;;14.30;;
69026;SDS011;56080;47.594;19.116;2024-03-02T07:42:33;24.30;;;15.20;;
69026;SDS011;56080;47.594;19.116;2024-03-02T07:52:34;20.90;;;13.10;;
69026;SDS011;56080;47.594;19.116;2024-03-02T08:02:34;22.30;;;14.40;;
69026;SDS011;56080;47.594;19.116;2024-03-02T08:12:35;23.60;;;14.10;;
69026;SDS011;56080;47.594;19.116;2024-03-02T08:22:36;27.00;;;15.10;;
69026;SDS011;56080;47.594;19.116;2024-03-02T08:32:37;25.40;;;16.20;;
69026;SDS011;56080;47.594;19.116;2024-03-02T08:42:37;26.00;;;15.80;;
69026;SDS011;56080;47.594;19.116;2024-03-02T08:52:38;24.50;;;14.80;;
69026;SDS011;56080;47.594;19.116;2024-03-02T09:02:39;23.80;;;15.40;;
69026;SDS011;56080;47.594;19.116;2024-03-02T09:12:40;23.10;;;14.90;;
69026;SDS011;56080;47.594;19.116;2024-03-02T09:22:40;22.10;;;14.80;;
69026;SDS011;56080;47.594;19.116;2024-03-02T09:32:41;20.40;;;12.70;;
69026;SDS011;56080;47.594;19.116;2024-03-02T09:42:43;20.10;;;12.60;;
69026;SDS011;56080;47.594;19.116;2024-03-02T09:52:43;18.20;;;11.70;;
69026;SDS011;56080;47.594;19.116;2024-03-02T10:02:44;15.00;;;10.00;;
69026;SDS011;56080;47.594;19.116;2024-03-02T10:12:45;15.80;;;9.60;;
69026;SDS011;56080;47.594;19.116;2024-03-02T10:22:45;14.50;;;9.50;;
69026;SDS011;56080;47.594;19.116;2024-03-02T10:32:48;14.60;;;9.10;;
69026;SDS011;56080;47.594;19.116;2024-03-02T10:42:49;14.40;;;8.40;;
69026;SDS011;56080;47.594;19.116;2024-03-02T10:52:47;13.60;;;8.80;;
69026;SDS011;56080;47.594;19.116;2024-03-02T11:02:50;12.10;;;7.60;;
69026;SDS011;56080;47.594;19.116;2024-03-02T11:12:56;12.30;;;7.50;;
69026;SDS011;56080;47.594;19.116;2024-03-02T11:22:50;11.30;;;7.60;;
69026;SDS011;56080;47.594;19.116;2024-03-02T11:32:54;13.40;;;8.30;;
69026;SDS011;56080;47.594;19.116;2024-03-02T11:52:53;13.20;;;8.00;;
69026;SDS011;56080;47.594;19.116;2024-03-02T12:03:11;13.30;;;8.10;;
69026;SDS011;56080;47.594;19.116;2024-03-02T12:12:57;12.50;;;7.90;;
69026;SDS011;56080;47.594;19.116;2024-03-02T12:22:55;11.10;;;7.30;;
69026;SDS011;56080;47.594;19.116;2024-03-02T12:32:55;11.30;;;7.90;;
69026;SDS011;56080;47.594;19.116;2024-03-02T12:42:56;13.10;;;8.60;;
69026;SDS011;56080;47.594;19.116;2024-03-02T12:53:04;13.80;;;9.40;;
69026;SDS011;56080;47.594;19.116;2024-03-02T13:02:58;13.20;;;8.40;;
69026;SDS011;56080;47.594;19.116;2024-03-02T13:12:58;13.60;;;8.40;;
69026;SDS011;56080;47.594;19.116;2024-03-02T13:22:59;11.90;;;7.80;;
69026;SDS011;56080;47.594;19.116;2024-03-02T13:33:00;12.90;;;8.00;;
69026;SDS011;56080;47.594;19.116;2024-03-02T13:43:02;14.40;;;8.20;;
69026;SDS011;56080;47.594;19.116;2024-03-02T13:53:01;13.60;;;8.30;;
69026;SDS011;56080;47.594;19.116;2024-03-02T14:03:03;17.40;;;9.30;;
69026;SDS011;56080;47.594;19.116;2024-03-02T14:13:03;15.80;;;9.40;;
69026;SDS011;56080;47.594;19.116;2024-03-02T14:23:04;18.10;;;9.80;;
69026;SDS011;56080;47.594;19.116;2024-03-02T14:33:04;14.90;;;9.60;;
69026;SDS011;56080;47.594;19.116;2024-03-02T14:43:06;15.70;;;8.80;;
69026;SDS011;56080;47.594;19.116;2024-03-02T14:53:08;16.50;;;9.80;;
69026;SDS011;56080;47.594;19.116;2024-03-02T15:03:07;16.00;;;9.90;;
69026;SDS011;56080;47.594;19.116;2024-03-02T15:13:08;19.20;;;10.50;;
69026;SDS011;56080;47.594;19.116;2024-03-02T15:23:09;20.30;;;11.80;;
69026;SDS011;56080;47.594;19.116;2024-03-02T15:33:09;25.90;;;13.50;;
69026;SDS011;56080;47.594;19.116;2024-03-02T15:43:10;28.40;;;14.40;;
69026;SDS011;56080;47.594;19.116;2024-03-02T15:53:14;28.10;;;14.80;;
69026;SDS011;56080;47.594;19.116;2024-03-02T16:03:12;30.80;;;15.80;;
69026;SDS011;56080;47.594;19.116;2024-03-02T16:13:13;31.80;;;16.10;;
69026;SDS011;56080;47.594;19.116;2024-03-02T16:23:13;31.50;;;15.60;;
69026;SDS011;56080;47.594;19.116;2024-03-02T16:33:14;30.10;;;15.70;;
69026;SDS011;56080;47.594;19.116;2024-03-02T16:43:15;29.40;;;16.20;;
69026;SDS011;56080;47.594;19.116;2024-03-02T16:53:16;29.20;;;15.50;;
69026;SDS011;56080;47.594;19.116;2024-03-02T17:03:17;28.20;;;15.80;;
69026;SDS011;56080;47.594;19.116;2024-03-02T17:13:17;27.50;;;14.80;;
69026;SDS011;56080;47.594;19.116;2024-03-02T17:23:18;25.30;;;14.50;;
69026;SDS011;56080;47.594;19.116;2024-03-02T17:33:19;22.60;;;12.40;;
69026;SDS011;56080;47.594;19.116;2024-03-02T17:43:22;22.40;;;12.60;;
69026;SDS011;56080;47.594;19.116;2024-03-02T17:53:21;18.90;;;11.30;;
69026;SDS011;56080;47.594;19.116;2024-03-02T18:03:21;18.80;;;11.00;;
69026;SDS011;56080;47.594;19.116;2024-03-02T18:13:22;19.30;;;11.90;;
69026;SDS011;56080;47.594;19.116;2024-03-02T18:23:23;20.20;;;12.20;;
69026;SDS011;56080;47.594;19.116;2024-03-02T18:33:25;18.50;;;11.10;;
69026;SDS011;56080;47.594;19.116;2024-03-02T18:43:24;17.10;;;10.80;;
69026;SDS011;56080;47.594;19.116;2024-03-02T18:53:25;16.40;;;10.00;;
69026;SDS011;56080;47.594;19.116;2024-03-02T19:03:26;15.00;;;9.30;;
69026;SDS011;56080;47.594;19.116;2024-03-02T19:13:27;17.20;;;8.80;;
69026;SDS011;56080;47.594;19.116;2024-03-02T19:33:28;15.00;;;10.00;;
69026;SDS011;56080;47.594;19.116;2024-03-02T19:43:31;15.40;;;10.50;;
69026;SDS011;56080;47.594;19.116;2024-03-02T19:53:30;17.90;;;11.30;;
69026;SDS011;56080;47.594;19.116;2024-03-02T20:03:32;17.00;;;10.20;;
69026;SDS011;56080;47.594;19.116;2024-03-02T20:13:33;16.20;;;10.30;;
69026;SDS011;56080;47.594;19.116;2024-03-02T20:23:32;14.90;;;10.10;;
69026;SDS011;56080;47.594;19.116;2024-03-02T20:33:33;15.30;;;9.10;;
69026;SDS011;56080;47.594;19.116;2024-03-02T20:43:34;15.50;;;10.10;;
69026;SDS011;56080;47.594;19.116;2024-03-02T20:53:35;15.00;;;9.50;;
69026;SDS011;56080;47.594;19.116;2024-03-02T21:03:36;14.50;;;9.00;;
69026;SDS011;56080;47.594;19.116;2024-03-02T21:13:37;14.00;;;8.60;;
69026;SDS011;56080;47.594;19.116;2024-03-02T21:23:39;13.00;;;7.80;;
69026;SDS011;56080;47.594;19.116;2024-03-02T21:33:38;11.30;;;6.90;;
69026;SDS011;56080;47.594;19.116;2024-03-02T21:53:40;12.10;;;6.30;;
69026;SDS011;56080;47.594;19.116;2024-03-02T22:03:42;14.40;;;8.40;;
69026;SDS011;56080;47.594;19.116;2024-03-02T22:23:46;13.80;;;8.40;;
69026;SDS011;56080;47.594;19.116;2024-03-02T22:33:44;15.90;;;9.50;;
69026;SDS011;56080;47.594;19.116;2024-03-02T22:43:44;15.70;;;9.00;;
69026;SDS011;56080;47.594;19.116;2024-03-02T22:53:46;14.00;;;8.40;;
69026;SDS011;56080;47.594;19.116;2024-03-02T23:03:47;16.60;;;10.40;;
69026;SDS011;56080;47.594;19.116;2024-03-02T23:13:47;16.70;;;10.40;;
69026;SDS011;56080;47.594;19.116;2024-03-02T23:23:48;18.30;;;11.10;;
69026;SDS011;56080;47.594;19.116;2024-03-02T23:33:50;15.70;;;9.50;;
69026;SDS011;56080;47.594;19.116;2024-03-02T23:43:49;16.50;;;10.00;;
69026;SDS011;56080;47.594;19.116;2024-03-02T23:53:50;14.70;;;8.90;;
